Platja d'Aro, Spain

1:26 AM CEST on May 30, 2015 (GMT +0200)
Avda. Balears | | Change Station
CLOSE
Current Station
Personal Weather Station
Location: Sant Feliu De Guxols, Girona
Elevation: 131 ft
Nearby Weather Stations

Elev 131 ft 41.79 °N, 3.03 °E | Updated 11 minutes ago

Partly Cloudy
Partly Cloudy
64.2 °F
Feels Like 64.2 °F
N
0.6
Wind Variable Wind from SW
Gusts 3.1 mph

Today
High -- | Low -- °F
--% Chance of Precip.
Yesterday
High -- | Low -- °F
Precip. -- in
6:16 AM 9:14 PM
Waxing Gibbous, 86% visible
Pressure 30.01 in
Visibility 6.2 miles
Clouds Few 8500 ft
Dew Point 57 °F
Humidity 77%
Rainfall 0.00 in
Snow Depth Not available.
UV 0 out of 12
Pollen Not available.
Air Quality Not available.
Flu Activity Not available.
METAR LEGE 292300Z 00000KT 9999 FEW085 16/15 Q1016

More Conditions Fewer Conditions

Pressure 30.01 in
Visibility 6.2 miles
Clouds Few 8500 ft
Dew Point 57 °F
Humidity 77%
Rainfall 0.00 in
Snow Depth Not available.
UV 0 out of 12
Pollen Not available.
Air Quality Not available.
Flu Activity Not available.
METAR LEGE 292300Z 00000KT 9999 FEW085 16/15 Q1016

More Conditions Fewer Conditions

10-Day Weather Forecast

Almanac

Astronomy

May. 30, 2015 Rise Set
Actual Time
Civil Twilight
Nautical Twilight
Astronomical Twilight
Moon
Length of Visible Light
Length of Day
Tomorrow will be .
, % of the Moon is Illuminated

Today's Extremes

Country Highs Country Lows

Community

WunderPhotos

Upload Photos

1,825,401 photos uploaded!

WunderBlogs® & News

Nearby

Air Quality

  Air Quality AQ Index Pollutant
Not available.

Snow Depth

Station Depth Elevation

Earthquake Activity

City Distance Mag. Time & Date
Minimum magnitude displayed is 2.5.

Coastal Water Temperatures

Place Temperature

Stations

Nearby Weather Stations

Station Location Temp. Windchill Dew Point Humidity Wind Precip. Elev Updated Type